Lexington, MA

11:42 PM EST on December 28, 2014 (GMT -0500)
Logan International | Change Station
CLOSE
Current Station
Airport
Location: Boston,
Elevation: 20 ft
Nearby Weather Stations

Elev 20 ft 42.36 °N, 71.01 °W | Updated 48 minutes ago

Partly Cloudy
Partly Cloudy
41 °F
Feels Like 34 °F
N
13
Wind Variable Wind from WNW

Today
High -- | Low -- °F
--% Chance of Precip.
Yesterday
High -- | Low -- °F
Precip. -- in
7:13 AM 4:19 PM
First Quarter, 55% visible
Pressure 29.97 in
Visibility 10.0 miles
Clouds Mostly Cloudy 17000 ft
Windchill 34 °F
Dew Point 28 °F
Humidity 60%
Rainfall 0.01 in
Snow Depth Not available.
UV 0 out of 12
Pollen .10 out of 12
Air Quality Not available.
Flu Activity Not available.
METAR KBOS 290354Z 29011KT 10SM BKN170 05/M02 A2997 RMK AO2 SLP148 T00501022

More Conditions Fewer Conditions

Pressure 29.97 in
Visibility 10.0 miles
Clouds Mostly Cloudy 17000 ft
Windchill 34 °F
Dew Point 28 °F
Humidity 60%
Rainfall 0.01 in
Snow Depth Not available.
UV 0 out of 12
Pollen .10 out of 12
Air Quality Not available.
Flu Activity Not available.
METAR KBOS 290354Z 29011KT 10SM BKN170 05/M02 A2997 RMK AO2 SLP148 T00501022

More Conditions Fewer Conditions

10-Day Weather Forecast

Almanac

Astronomy

Dec. 28, 2014 Rise Set
Actual Time
Civil Twilight
Nautical Twilight
Astronomical Twilight
Moon
Length of Visible Light
Length of Day
Tomorrow will be .
, % of the Moon is Illuminated

Today's Extremes

State Highs State Lows

Community

WunderPhotos

Upload Photos

1,781,530 photos uploaded!

WunderBlogs® & News

Nearby

Air Quality

  Air Quality AQ Index Pollutant
Not available.

Snow Depth

Station Depth Elevation

Earthquake Activity

City Distance Mag. Time & Date
Minimum magnitude displayed is 2.5.

Coastal Water Temperatures

Place Temperature

Nearby Weather Stations